sensor_id;sensor_type;location;lat;lon;timestamp;P1;durP1;ratioP1;P2;durP2;ratioP2
72785;SDS011;60902;53.876;10.674;2023-05-10T14:11:08;8.60;;;5.97;;
72785;SDS011;60902;53.876;10.674;2023-05-10T14:11:20;9.00;;;6.00;;
72785;SDS011;60902;53.876;10.674;2023-05-10T14:11:31;9.75;;;6.05;;
72785;SDS011;60902;53.876;10.674;2023-05-10T14:11:42;9.63;;;6.10;;
72785;SDS011;60902;53.876;10.674;2023-05-10T14:11:54;8.45;;;5.75;;
72785;SDS011;60902;53.876;10.674;2023-05-10T14:12:05;8.30;;;5.80;;
72785;SDS011;60902;53.876;10.674;2023-05-10T14:12:17;8.32;;;5.53;;
72785;SDS011;60902;53.876;10.674;2023-05-10T14:12:29;8.55;;;5.63;;
72785;SDS011;60902;53.876;10.674;2023-05-10T14:12:40;8.85;;;5.65;;
72785;SDS011;60902;53.876;10.674;2023-05-10T14:12:51;8.98;;;5.75;;
72785;SDS011;60902;53.876;10.674;2023-05-10T14:13:02;8.48;;;5.72;;
72785;SDS011;60902;53.876;10.674;2023-05-10T14:13:13;7.65;;;5.53;;
72785;SDS011;60902;53.876;10.674;2023-05-10T14:13:25;7.68;;;5.50;;
72785;SDS011;60902;53.876;10.674;2023-05-10T14:13:35;8.47;;;5.63;;
72785;SDS011;60902;53.876;10.674;2023-05-10T14:13:47;9.38;;;6.13;;
72785;SDS011;60902;53.876;10.674;2023-05-10T14:13:58;9.70;;;6.38;;
72785;SDS011;60902;53.876;10.674;2023-05-10T14:14:09;9.27;;;6.35;;
72785;SDS011;60902;53.876;10.674;2023-05-10T14:14:20;8.52;;;5.90;;
72785;SDS011;60902;53.876;10.674;2023-05-10T14:14:31;8.18;;;5.78;;
72785;SDS011;60902;53.876;10.674;2023-05-10T14:14:42;8.38;;;5.47;;
72785;SDS011;60902;53.876;10.674;2023-05-10T14:14:55;8.63;;;5.63;;
72785;SDS011;60902;53.876;10.674;2023-05-10T14:15:06;7.75;;;5.38;;
72785;SDS011;60902;53.876;10.674;2023-05-10T14:15:18;7.72;;;5.18;;
72785;SDS011;60902;53.876;10.674;2023-05-10T14:15:29;7.60;;;5.20;;
72785;SDS011;60902;53.876;10.674;2023-05-10T14:15:39;7.68;;;5.50;;
72785;SDS011;60902;53.876;10.674;2023-05-10T14:15:52;8.43;;;6.03;;
72785;SDS011;60902;53.876;10.674;2023-05-10T14:16:03;8.52;;;6.10;;
72785;SDS011;60902;53.876;10.674;2023-05-10T14:16:19;8.10;;;5.45;;
72785;SDS011;60902;53.876;10.674;2023-05-10T14:16:30;8.02;;;5.30;;
72785;SDS011;60902;53.876;10.674;2023-05-10T14:16:41;8.90;;;5.88;;
72785;SDS011;60902;53.876;10.674;2023-05-10T14:16:54;9.25;;;6.20;;
72785;SDS011;60902;53.876;10.674;2023-05-10T14:17:05;9.23;;;6.25;;
72785;SDS011;60902;53.876;10.674;2023-05-10T14:17:16;9.25;;;6.03;;
72785;SDS011;60902;53.876;10.674;2023-05-10T14:17:28;9.15;;;6.05;;
72785;SDS011;60902;53.876;10.674;2023-05-10T14:17:39;9.30;;;6.10;;
72785;SDS011;60902;53.876;10.674;2023-05-10T14:17:50;8.85;;;6.10;;
72785;SDS011;60902;53.876;10.674;2023-05-10T14:18:11;8.82;;;5.85;;
72785;SDS011;60902;53.876;10.674;2023-05-10T14:18:23;8.52;;;5.78;;
72785;SDS011;60902;53.876;10.674;2023-05-10T14:18:35;9.57;;;6.25;;
72785;SDS011;60902;53.876;10.674;2023-05-10T14:18:46;10.15;;;6.75;;
72785;SDS011;60902;53.876;10.674;2023-05-10T14:18:57;10.25;;;6.70;;
72785;SDS011;60902;53.876;10.674;2023-05-10T14:19:08;9.40;;;6.30;;
72785;SDS011;60902;53.876;10.674;2023-05-10T14:19:19;8.63;;;6.00;;
72785;SDS011;60902;53.876;10.674;2023-05-10T14:19:32;8.27;;;5.97;;
72785;SDS011;60902;53.876;10.674;2023-05-10T14:19:44;8.73;;;6.53;;
72785;SDS011;60902;53.876;10.674;2023-05-10T14:19:54;8.90;;;6.82;;
72785;SDS011;60902;53.876;10.674;2023-05-10T14:20:06;9.35;;;6.93;;
72785;SDS011;60902;53.876;10.674;2023-05-10T14:20:18;9.07;;;6.15;;
72785;SDS011;60902;53.876;10.674;2023-05-10T14:20:29;8.60;;;5.93;;
72785;SDS011;60902;53.876;10.674;2023-05-10T14:20:40;8.68;;;6.03;;
72785;SDS011;60902;53.876;10.674;2023-05-10T14:20:52;8.70;;;6.18;;
72785;SDS011;60902;53.876;10.674;2023-05-10T14:21:03;8.98;;;6.28;;
72785;SDS011;60902;53.876;10.674;2023-05-10T14:21:14;8.52;;;6.13;;
72785;SDS011;60902;53.876;10.674;2023-05-10T14:21:25;8.57;;;6.10;;
72785;SDS011;60902;53.876;10.674;2023-05-10T14:21:36;8.38;;;5.85;;
72785;SDS011;60902;53.876;10.674;2023-05-10T14:21:48;8.30;;;5.82;;
72785;SDS011;60902;53.876;10.674;2023-05-10T14:22:01;8.70;;;6.13;;
72785;SDS011;60902;53.876;10.674;2023-05-10T14:22:12;9.07;;;6.28;;
72785;SDS011;60902;53.876;10.674;2023-05-10T14:22:23;8.90;;;6.25;;
72785;SDS011;60902;53.876;10.674;2023-05-10T14:22:34;8.17;;;5.93;;
72785;SDS011;60902;53.876;10.674;2023-05-10T14:22:45;7.70;;;5.43;;
72785;SDS011;60902;53.876;10.674;2023-05-10T14:22:57;9.30;;;5.75;;
72785;SDS011;60902;53.876;10.674;2023-05-10T14:23:08;9.30;;;5.78;;
72785;SDS011;60902;53.876;10.674;2023-05-10T14:23:19;9.30;;;5.93;;
72785;SDS011;60902;53.876;10.674;2023-05-10T14:23:34;9.10;;;5.90;;
72785;SDS011;60902;53.876;10.674;2023-05-10T14:23:45;9.65;;;5.82;;
72785;SDS011;60902;53.876;10.674;2023-05-10T14:23:57;9.25;;;5.72;;
72785;SDS011;60902;53.876;10.674;2023-05-10T14:24:08;7.97;;;5.70;;
72785;SDS011;60902;53.876;10.674;2023-05-10T14:24:19;8.00;;;5.68;;
72785;SDS011;60902;53.876;10.674;2023-05-10T14:24:30;8.60;;;5.75;;
72785;SDS011;60902;53.876;10.674;2023-05-10T14:24:41;8.25;;;5.50;;
72785;SDS011;60902;53.876;10.674;2023-05-10T14:24:54;8.07;;;5.47;;
72785;SDS011;60902;53.876;10.674;2023-05-10T14:25:06;8.15;;;5.82;;
72785;SDS011;60902;53.876;10.674;2023-05-10T14:25:18;8.98;;;6.20;;
72785;SDS011;60902;53.876;10.674;2023-05-10T14:25:31;8.90;;;6.27;;
72785;SDS011;60902;53.876;10.674;2023-05-10T14:25:43;8.98;;;6.30;;
72785;SDS011;60902;53.876;10.674;2023-05-10T14:25:54;8.40;;;6.20;;
72785;SDS011;60902;53.876;10.674;2023-05-10T14:26:05;8.65;;;6.55;;
72785;SDS011;60902;53.876;10.674;2023-05-10T14:26:19;9.00;;;6.68;;
72785;SDS011;60902;53.876;10.674;2023-05-10T14:26:30;9.57;;;6.85;;
72785;SDS011;60902;53.876;10.674;2023-05-10T14:26:41;10.43;;;7.07;;
72785;SDS011;60902;53.876;10.674;2023-05-10T14:26:52;10.02;;;7.03;;
72785;SDS011;60902;53.876;10.674;2023-05-10T14:27:03;9.82;;;6.63;;
72785;SDS011;60902;53.876;10.674;2023-05-10T14:27:15;9.80;;;6.50;;
72785;SDS011;60902;53.876;10.674;2023-05-10T14:27:29;9.98;;;6.32;;
72785;SDS011;60902;53.876;10.674;2023-05-10T14:27:40;10.15;;;6.28;;
72785;SDS011;60902;53.876;10.674;2023-05-10T14:27:51;9.07;;;6.15;;
72785;SDS011;60902;53.876;10.674;2023-05-10T14:28:04;8.80;;;6.20;;
72785;SDS011;60902;53.876;10.674;2023-05-10T14:28:15;8.43;;;6.23;;
72785;SDS011;60902;53.876;10.674;2023-05-10T14:28:27;9.00;;;6.20;;
72785;SDS011;60902;53.876;10.674;2023-05-10T14:28:39;9.25;;;6.10;;
72785;SDS011;60902;53.876;10.674;2023-05-10T14:28:50;9.10;;;5.88;;
72785;SDS011;60902;53.876;10.674;2023-05-10T14:29:01;8.68;;;5.82;;
72785;SDS011;60902;53.876;10.674;2023-05-10T14:29:12;8.43;;;5.97;;
72785;SDS011;60902;53.876;10.674;2023-05-10T14:29:23;8.57;;;6.15;;
72785;SDS011;60902;53.876;10.674;2023-05-10T14:29:34;9.00;;;6.28;;
72785;SDS011;60902;53.876;10.674;2023-05-10T14:29:45;8.73;;;6.00;;
72785;SDS011;60902;53.876;10.674;2023-05-10T14:29:58;8.50;;;5.78;;
72785;SDS011;60902;53.876;10.674;2023-05-10T14:30:09;8.32;;;5.95;;
72785;SDS011;60902;53.876;10.674;2023-05-10T14:30:21;8.52;;;5.97;;
72785;SDS011;60902;53.876;10.674;2023-05-10T14:30:32;8.05;;;5.70;;
72785;SDS011;60902;53.876;10.674;2023-05-10T14:30:44;8.30;;;5.70;;
72785;SDS011;60902;53.876;10.674;2023-05-10T14:30:55;8.23;;;5.68;;
72785;SDS011;60902;53.876;10.674;2023-05-10T14:31:07;8.15;;;5.82;;
72785;SDS011;60902;53.876;10.674;2023-05-10T14:31:18;8.25;;;5.93;;
72785;SDS011;60902;53.876;10.674;2023-05-10T14:31:30;8.45;;;6.05;;
72785;SDS011;60902;53.876;10.674;2023-05-10T14:31:41;8.05;;;6.00;;
72785;SDS011;60902;53.876;10.674;2023-05-10T14:31:52;7.95;;;5.72;;
72785;SDS011;60902;53.876;10.674;2023-05-10T14:32:04;9.10;;;5.75;;
72785;SDS011;60902;53.876;10.674;2023-05-10T14:32:16;9.70;;;6.05;;
72785;SDS011;60902;53.876;10.674;2023-05-10T14:32:26;9.15;;;6.00;;
72785;SDS011;60902;53.876;10.674;2023-05-10T14:32:38;8.32;;;5.65;;
72785;SDS011;60902;53.876;10.674;2023-05-10T14:32:49;7.75;;;5.05;;
72785;SDS011;60902;53.876;10.674;2023-05-10T14:33:00;7.73;;;4.87;;
72785;SDS011;60902;53.876;10.674;2023-05-10T14:33:13;8.25;;;5.32;;
72785;SDS011;60902;53.876;10.674;2023-05-10T14:33:24;8.60;;;5.88;;
72785;SDS011;60902;53.876;10.674;2023-05-10T14:33:35;7.90;;;6.03;;
72785;SDS011;60902;53.876;10.674;2023-05-10T14:33:46;8.07;;;6.20;;
72785;SDS011;60902;53.876;10.674;2023-05-10T14:33:56;8.32;;;6.22;;
72785;SDS011;60902;53.876;10.674;2023-05-10T14:34:09;8.68;;;6.20;;
72785;SDS011;60902;53.876;10.674;2023-05-10T14:34:20;9.73;;;5.75;;
72785;SDS011;60902;53.876;10.674;2023-05-10T14:34:31;9.63;;;5.35;;
72785;SDS011;60902;53.876;10.674;2023-05-10T14:34:41;9.55;;;5.65;;
72785;SDS011;60902;53.876;10.674;2023-05-10T14:34:52;8.73;;;6.18;;
72785;SDS011;60902;53.876;10.674;2023-05-10T14:35:04;9.23;;;6.13;;
72785;SDS011;60902;53.876;10.674;2023-05-10T14:35:16;9.48;;;5.80;;
72785;SDS011;60902;53.876;10.674;2023-05-10T14:35:28;9.13;;;5.78;;
72785;SDS011;60902;53.876;10.674;2023-05-10T14:35:40;8.88;;;6.05;;
72785;SDS011;60902;53.876;10.674;2023-05-10T14:35:51;8.40;;;6.22;;
72785;SDS011;60902;53.876;10.674;2023-05-10T14:36:04;8.32;;;6.10;;
72785;SDS011;60902;53.876;10.674;2023-05-10T14:36:16;7.95;;;5.80;;
72785;SDS011;60902;53.876;10.674;2023-05-10T14:36:28;8.00;;;5.80;;
72785;SDS011;60902;53.876;10.674;2023-05-10T14:36:40;8.23;;;5.82;;
72785;SDS011;60902;53.876;10.674;2023-05-10T14:36:51;8.13;;;5.78;;
72785;SDS011;60902;53.876;10.674;2023-05-10T14:37:01;8.18;;;5.55;;
72785;SDS011;60902;53.876;10.674;2023-05-10T14:37:13;8.30;;;5.60;;
72785;SDS011;60902;53.876;10.674;2023-05-10T14:37:24;8.25;;;5.63;;
72785;SDS011;60902;53.876;10.674;2023-05-10T14:37:35;8.43;;;6.00;;
72785;SDS011;60902;53.876;10.674;2023-05-10T14:37:47;8.60;;;6.22;;
72785;SDS011;60902;53.876;10.674;2023-05-10T14:37:58;8.93;;;6.25;;
72785;SDS011;60902;53.876;10.674;2023-05-10T14:38:09;9.10;;;6.20;;
72785;SDS011;60902;53.876;10.674;2023-05-10T14:38:20;8.98;;;6.15;;
72785;SDS011;60902;53.876;10.674;2023-05-10T14:38:31;8.25;;;6.00;;
72785;SDS011;60902;53.876;10.674;2023-05-10T14:38:42;8.43;;;6.05;;
72785;SDS011;60902;53.876;10.674;2023-05-10T14:38:55;8.40;;;5.82;;
72785;SDS011;60902;53.876;10.674;2023-05-10T14:39:06;8.20;;;5.67;;
72785;SDS011;60902;53.876;10.674;2023-05-10T14:39:17;7.47;;;5.43;;
72785;SDS011;60902;53.876;10.674;2023-05-10T14:39:28;7.30;;;5.33;;
72785;SDS011;60902;53.876;10.674;2023-05-10T14:39:40;7.75;;;5.70;;
72785;SDS011;60902;53.876;10.674;2023-05-10T14:39:52;9.07;;;6.40;;
72785;SDS011;60902;53.876;10.674;2023-05-10T14:40:05;8.95;;;6.25;;
72785;SDS011;60902;53.876;10.674;2023-05-10T14:40:17;8.70;;;6.05;;
72785;SDS011;60902;53.876;10.674;2023-05-10T14:40:28;8.48;;;6.15;;
72785;SDS011;60902;53.876;10.674;2023-05-10T14:40:39;8.63;;;6.20;;
72785;SDS011;60902;53.876;10.674;2023-05-10T14:40:50;9.10;;;6.30;;
72785;SDS011;60902;53.876;10.674;2023-05-10T14:41:01;9.90;;;6.20;;
72785;SDS011;60902;53.876;10.674;2023-05-10T14:41:12;10.00;;;6.10;;
72785;SDS011;60902;53.876;10.674;2023-05-10T14:41:26;9.43;;;5.95;;
72785;SDS011;60902;53.876;10.674;2023-05-10T14:41:37;9.18;;;5.88;;
72785;SDS011;60902;53.876;10.674;2023-05-10T14:41:50;8.23;;;5.68;;
72785;SDS011;60902;53.876;10.674;2023-05-10T14:42:02;8.05;;;5.32;;
72785;SDS011;60902;53.876;10.674;2023-05-10T14:42:13;8.15;;;5.50;;
72785;SDS011;60902;53.876;10.674;2023-05-10T14:42:24;8.73;;;5.78;;
72785;SDS011;60902;53.876;10.674;2023-05-10T14:42:35;8.70;;;6.00;;
72785;SDS011;60902;53.876;10.674;2023-05-10T14:42:46;8.50;;;5.75;;
72785;SDS011;60902;53.876;10.674;2023-05-10T14:42:57;8.38;;;5.65;;
72785;SDS011;60902;53.876;10.674;2023-05-10T14:43:08;8.75;;;5.80;;
72785;SDS011;60902;53.876;10.674;2023-05-10T14:43:19;8.52;;;5.60;;
72785;SDS011;60902;53.876;10.674;2023-05-10T14:43:30;8.68;;;5.53;;
72785;SDS011;60902;53.876;10.674;2023-05-10T14:43:41;8.40;;;5.50;;
72785;SDS011;60902;53.876;10.674;2023-05-10T14:43:52;8.60;;;5.90;;
72785;SDS011;60902;53.876;10.674;2023-05-10T14:44:04;8.75;;;6.15;;
72785;SDS011;60902;53.876;10.674;2023-05-10T14:44:15;9.05;;;6.25;;
72785;SDS011;60902;53.876;10.674;2023-05-10T14:44:27;9.17;;;6.27;;
72785;SDS011;60902;53.876;10.674;2023-05-10T14:44:37;9.13;;;6.05;;
72785;SDS011;60902;53.876;10.674;2023-05-10T14:44:48;9.02;;;6.20;;
72785;SDS011;60902;53.876;10.674;2023-05-10T14:44:59;9.05;;;6.15;;
72785;SDS011;60902;53.876;10.674;2023-05-10T14:45:11;8.77;;;5.82;;
72785;SDS011;60902;53.876;10.674;2023-05-10T14:45:22;8.38;;;5.53;;
72785;SDS011;60902;53.876;10.674;2023-05-10T14:45:33;8.75;;;5.85;;
72785;SDS011;60902;53.876;10.674;2023-05-10T14:45:44;9.13;;;6.10;;
72785;SDS011;60902;53.876;10.674;2023-05-10T14:45:56;9.20;;;6.10;;
72785;SDS011;60902;53.876;10.674;2023-05-10T14:46:07;9.02;;;6.00;;
72785;SDS011;60902;53.876;10.674;2023-05-10T14:46:18;8.23;;;5.55;;
72785;SDS011;60902;53.876;10.674;2023-05-10T14:46:30;7.88;;;5.35;;
72785;SDS011;60902;53.876;10.674;2023-05-10T14:46:41;8.18;;;5.65;;
72785;SDS011;60902;53.876;10.674;2023-05-10T14:46:52;8.45;;;6.03;;
72785;SDS011;60902;53.876;10.674;2023-05-10T14:47:03;9.00;;;6.27;;
72785;SDS011;60902;53.876;10.674;2023-05-10T14:47:14;9.48;;;6.10;;
72785;SDS011;60902;53.876;10.674;2023-05-10T14:47:26;9.85;;;5.97;;
72785;SDS011;60902;53.876;10.674;2023-05-10T14:47:37;9.80;;;5.88;;
72785;SDS011;60902;53.876;10.674;2023-05-10T14:47:48;9.10;;;5.78;;
72785;SDS011;60902;53.876;10.674;2023-05-10T14:48:00;9.32;;;5.85;;
72785;SDS011;60902;53.876;10.674;2023-05-10T14:48:14;8.38;;;5.75;;
72785;SDS011;60902;53.876;10.674;2023-05-10T14:48:27;8.25;;;5.70;;
72785;SDS011;60902;53.876;10.674;2023-05-10T14:48:38;8.23;;;5.45;;
72785;SDS011;60902;53.876;10.674;2023-05-10T14:48:49;8.35;;;5.60;;
72785;SDS011;60902;53.876;10.674;2023-05-10T14:49:01;8.00;;;5.68;;
72785;SDS011;60902;53.876;10.674;2023-05-10T14:49:11;7.82;;;5.60;;
72785;SDS011;60902;53.876;10.674;2023-05-10T14:49:22;7.90;;;5.53;;
72785;SDS011;60902;53.876;10.674;2023-05-10T14:49:35;7.95;;;5.43;;
72785;SDS011;60902;53.876;10.674;2023-05-10T14:49:46;7.90;;;5.38;;
72785;SDS011;60902;53.876;10.674;2023-05-10T14:49:57;8.18;;;5.35;;
72785;SDS011;60902;53.876;10.674;2023-05-10T14:50:08;8.73;;;5.60;;
72785;SDS011;60902;53.876;10.674;2023-05-10T14:50:20;8.40;;;5.63;;
72785;SDS011;60902;53.876;10.674;2023-05-10T14:50:31;7.82;;;5.65;;
72785;SDS011;60902;53.876;10.674;2023-05-10T14:50:42;7.50;;;5.53;;
72785;SDS011;60902;53.876;10.674;2023-05-10T14:50:55;8.25;;;5.90;;
72785;SDS011;60902;53.876;10.674;2023-05-10T14:51:06;8.32;;;5.80;;
72785;SDS011;60902;53.876;10.674;2023-05-10T14:51:17;8.20;;;5.87;;
72785;SDS011;60902;53.876;10.674;2023-05-10T14:51:31;8.48;;;5.93;;
72785;SDS011;60902;53.876;10.674;2023-05-10T14:51:42;8.68;;;5.82;;
72785;SDS011;60902;53.876;10.674;2023-05-10T14:51:54;8.45;;;5.70;;
72785;SDS011;60902;53.876;10.674;2023-05-10T14:52:05;8.13;;;5.55;;
72785;SDS011;60902;53.876;10.674;2023-05-10T14:52:16;7.72;;;5.30;;
72785;SDS011;60902;53.876;10.674;2023-05-10T14:52:27;7.45;;;5.07;;
72785;SDS011;60902;53.876;10.674;2023-05-10T14:52:38;7.78;;;5.35;;
72785;SDS011;60902;53.876;10.674;2023-05-10T14:52:50;8.20;;;5.85;;
72785;SDS011;60902;53.876;10.674;2023-05-10T14:53:01;8.38;;;6.03;;
72785;SDS011;60902;53.876;10.674;2023-05-10T14:53:12;8.30;;;5.70;;
72785;SDS011;60902;53.876;10.674;2023-05-10T14:53:23;8.23;;;5.53;;
72785;SDS011;60902;53.876;10.674;2023-05-10T14:53:34;8.40;;;5.60;;
72785;SDS011;60902;53.876;10.674;2023-05-10T14:53:45;8.05;;;5.50;;
72785;SDS011;60902;53.876;10.674;2023-05-10T14:53:56;7.82;;;5.40;;
72785;SDS011;60902;53.876;10.674;2023-05-10T14:54:07;7.82;;;5.35;;
72785;SDS011;60902;53.876;10.674;2023-05-10T14:54:19;7.85;;;5.40;;
72785;SDS011;60902;53.876;10.674;2023-05-10T14:54:30;7.80;;;5.50;;
72785;SDS011;60902;53.876;10.674;2023-05-10T14:54:43;7.60;;;5.40;;
72785;SDS011;60902;53.876;10.674;2023-05-10T14:54:54;7.50;;;5.25;;
72785;SDS011;60902;53.876;10.674;2023-05-10T14:55:08;8.27;;;5.80;;
72785;SDS011;60902;53.876;10.674;2023-05-10T14:55:20;8.27;;;5.88;;
72785;SDS011;60902;53.876;10.674;2023-05-10T14:55:30;7.93;;;5.67;;
72785;SDS011;60902;53.876;10.674;2023-05-10T14:55:42;7.60;;;5.40;;
72785;SDS011;60902;53.876;10.674;2023-05-10T14:55:53;7.90;;;5.43;;
72785;SDS011;60902;53.876;10.674;2023-05-10T14:56:04;8.70;;;5.40;;
72785;SDS011;60902;53.876;10.674;2023-05-10T14:56:15;8.65;;;5.22;;
72785;SDS011;60902;53.876;10.674;2023-05-10T14:56:28;8.10;;;5.30;;
72785;SDS011;60902;53.876;10.674;2023-05-10T14:56:39;8.10;;;5.65;;
72785;SDS011;60902;53.876;10.674;2023-05-10T14:56:51;8.30;;;5.80;;
72785;SDS011;60902;53.876;10.674;2023-05-10T14:57:02;8.02;;;5.75;;
72785;SDS011;60902;53.876;10.674;2023-05-10T14:57:13;8.10;;;5.40;;
72785;SDS011;60902;53.876;10.674;2023-05-10T14:57:24;8.20;;;5.60;;
72785;SDS011;60902;53.876;10.674;2023-05-10T14:57:35;9.00;;;5.68;;
72785;SDS011;60902;53.876;10.674;2023-05-10T14:57:46;8.60;;;5.38;;
72785;SDS011;60902;53.876;10.674;2023-05-10T14:58:00;7.88;;;5.20;;
72785;SDS011;60902;53.876;10.674;2023-05-10T14:58:11;7.95;;;5.38;;
72785;SDS011;60902;53.876;10.674;2023-05-10T14:58:23;8.65;;;5.85;;
72785;SDS011;60902;53.876;10.674;2023-05-10T14:58:36;9.40;;;5.90;;
72785;SDS011;60902;53.876;10.674;2023-05-10T14:58:46;9.40;;;5.68;;
72785;SDS011;60902;53.876;10.674;2023-05-10T14:58:57;7.95;;;5.20;;
72785;SDS011;60902;53.876;10.674;2023-05-10T14:59:09;7.35;;;5.05;;
72785;SDS011;60902;53.876;10.674;2023-05-10T14:59:20;7.57;;;5.40;;
72785;SDS011;60902;53.876;10.674;2023-05-10T14:59:31;8.05;;;5.63;;
72785;SDS011;60902;53.876;10.674;2023-05-10T14:59:43;8.00;;;5.70;;
72785;SDS011;60902;53.876;10.674;2023-05-10T14:59:53;8.00;;;5.53;;
72785;SDS011;60902;53.876;10.674;2023-05-10T15:00:05;8.30;;;5.43;;
72785;SDS011;60902;53.876;10.674;2023-05-10T15:00:17;8.27;;;5.10;;
72785;SDS011;60902;53.876;10.674;2023-05-10T15:00:29;8.13;;;5.30;;
72785;SDS011;60902;53.876;10.674;2023-05-10T15:00:40;8.32;;;5.53;;
72785;SDS011;60902;53.876;10.674;2023-05-10T15:00:53;8.02;;;5.43;;
72785;SDS011;60902;53.876;10.674;2023-05-10T15:01:04;7.63;;;5.13;;
72785;SDS011;60902;53.876;10.674;2023-05-10T15:01:15;7.70;;;5.10;;
72785;SDS011;60902;53.876;10.674;2023-05-10T15:01:26;7.80;;;5.00;;
72785;SDS011;60902;53.876;10.674;2023-05-10T15:01:37;7.93;;;5.18;;
72785;SDS011;60902;53.876;10.674;2023-05-10T15:01:51;7.88;;;5.28;;
72785;SDS011;60902;53.876;10.674;2023-05-10T15:02:02;8.05;;;5.45;;
72785;SDS011;60902;53.876;10.674;2023-05-10T15:02:14;9.05;;;5.50;;
72785;SDS011;60902;53.876;10.674;2023-05-10T15:02:26;8.82;;;5.25;;
72785;SDS011;60902;53.876;10.674;2023-05-10T15:02:37;8.10;;;5.15;;
72785;SDS011;60902;53.876;10.674;2023-05-10T15:02:48;7.23;;;4.97;;
72785;SDS011;60902;53.876;10.674;2023-05-10T15:02:58;7.03;;;5.03;;
72785;SDS011;60902;53.876;10.674;2023-05-10T15:03:11;7.88;;;5.20;;
72785;SDS011;60902;53.876;10.674;2023-05-10T15:03:23;7.80;;;5.50;;
72785;SDS011;60902;53.876;10.674;2023-05-10T15:03:33;7.65;;;5.28;;
72785;SDS011;60902;53.876;10.674;2023-05-10T15:03:44;7.07;;;5.20;;
72785;SDS011;60902;53.876;10.674;2023-05-10T15:03:55;7.25;;;5.10;;
72785;SDS011;60902;53.876;10.674;2023-05-10T15:04:06;7.45;;;5.43;;
72785;SDS011;60902;53.876;10.674;2023-05-10T15:04:17;7.70;;;5.43;;
72785;SDS011;60902;53.876;10.674;2023-05-10T15:04:28;8.20;;;5.80;;
72785;SDS011;60902;53.876;10.674;2023-05-10T15:04:40;8.52;;;5.80;;
72785;SDS011;60902;53.876;10.674;2023-05-10T15:04:51;8.45;;;5.75;;
72785;SDS011;60902;53.876;10.674;2023-05-10T15:05:02;7.90;;;5.43;;
72785;SDS011;60902;53.876;10.674;2023-05-10T15:05:13;8.23;;;5.38;;
72785;SDS011;60902;53.876;10.674;2023-05-10T15:05:24;7.97;;;5.45;;
72785;SDS011;60902;53.876;10.674;2023-05-10T15:05:35;8.15;;;5.50;;
72785;SDS011;60902;53.876;10.674;2023-05-10T15:05:47;9.20;;;5.30;;
72785;SDS011;60902;53.876;10.674;2023-05-10T15:05:58;9.33;;;5.17;;
72785;SDS011;60902;53.876;10.674;2023-05-10T15:06:09;8.77;;;5.32;;
72785;SDS011;60902;53.876;10.674;2023-05-10T15:06:22;7.90;;;5.20;;
72785;SDS011;60902;53.876;10.674;2023-05-10T15:06:35;7.97;;;5.22;;
72785;SDS011;60902;53.876;10.674;2023-05-10T15:06:47;8.02;;;5.15;;
72785;SDS011;60902;53.876;10.674;2023-05-10T15:06:57;7.68;;;5.32;;
72785;SDS011;60902;53.876;10.674;2023-05-10T15:07:10;7.30;;;5.25;;
72785;SDS011;60902;53.876;10.674;2023-05-10T15:07:24;7.10;;;5.18;;
72785;SDS011;60902;53.876;10.674;2023-05-10T15:07:35;7.78;;;5.20;;
72785;SDS011;60902;53.876;10.674;2023-05-10T15:07:46;9.00;;;5.43;;
72785;SDS011;60902;53.876;10.674;2023-05-10T15:07:58;9.80;;;6.00;;
72785;SDS011;60902;53.876;10.674;2023-05-10T15:08:08;9.57;;;6.17;;
72785;SDS011;60902;53.876;10.674;2023-05-10T15:08:19;8.32;;;6.10;;
72785;SDS011;60902;53.876;10.674;2023-05-10T15:08:30;8.88;;;5.80;;
72785;SDS011;60902;53.876;10.674;2023-05-10T15:08:41;8.98;;;5.47;;
72785;SDS011;60902;53.876;10.674;2023-05-10T15:08:53;8.80;;;5.53;;
72785;SDS011;60902;53.876;10.674;2023-05-10T15:09:04;8.13;;;5.40;;
72785;SDS011;60902;53.876;10.674;2023-05-10T15:09:15;7.75;;;5.30;;
72785;SDS011;60902;53.876;10.674;2023-05-10T15:09:26;7.53;;;5.30;;
72785;SDS011;60902;53.876;10.674;2023-05-10T15:09:37;7.72;;;5.40;;
72785;SDS011;60902;53.876;10.674;2023-05-10T15:09:48;7.78;;;5.40;;
72785;SDS011;60902;53.876;10.674;2023-05-10T15:10:02;7.65;;;5.30;;
72785;SDS011;60902;53.876;10.674;2023-05-10T15:10:13;7.82;;;5.35;;
72785;SDS011;60902;53.876;10.674;2023-05-10T15:10:24;7.70;;;5.13;;
72785;SDS011;60902;53.876;10.674;2023-05-10T15:10:35;7.63;;;5.15;;
72785;SDS011;60902;53.876;10.674;2023-05-10T15:10:46;7.50;;;5.15;;
72785;SDS011;60902;53.876;10.674;2023-05-10T15:10:57;7.70;;;5.30;;
72785;SDS011;60902;53.876;10.674;2023-05-10T15:11:09;7.90;;;5.30;;
72785;SDS011;60902;53.876;10.674;2023-05-10T15:11:20;7.60;;;5.18;;
72785;SDS011;60902;53.876;10.674;2023-05-10T15:11:33;7.43;;;5.05;;
72785;SDS011;60902;53.876;10.674;2023-05-10T15:11:43;7.57;;;5.32;;
72785;SDS011;60902;53.876;10.674;2023-05-10T15:11:54;7.57;;;5.32;;
72785;SDS011;60902;53.876;10.674;2023-05-10T15:12:05;7.57;;;5.20;;
72785;SDS011;60902;53.876;10.674;2023-05-10T15:12:16;7.78;;;5.20;;
72785;SDS011;60902;53.876;10.674;2023-05-10T15:12:27;8.50;;;5.57;;
72785;SDS011;60902;53.876;10.674;2023-05-10T15:12:39;8.38;;;5.63;;
72785;SDS011;60902;53.876;10.674;2023-05-10T15:12:50;8.30;;;5.38;;
72785;SDS011;60902;53.876;10.674;2023-05-10T15:13:01;8.23;;;5.32;;
72785;SDS011;60902;53.876;10.674;2023-05-10T15:13:13;8.20;;;5.32;;
72785;SDS011;60902;53.876;10.674;2023-05-10T15:13:24;7.63;;;5.25;;
72785;SDS011;60902;53.876;10.674;2023-05-10T15:13:35;7.60;;;5.18;;
72785;SDS011;60902;53.876;10.674;2023-05-10T15:13:46;7.50;;;4.82;;
72785;SDS011;60902;53.876;10.674;2023-05-10T15:13:58;7.40;;;4.72;;
72785;SDS011;60902;53.876;10.674;2023-05-10T15:14:09;7.15;;;4.68;;
72785;SDS011;60902;53.876;10.674;2023-05-10T15:14:20;7.05;;;4.78;;
72785;SDS011;60902;53.876;10.674;2023-05-10T15:14:32;7.32;;;4.93;;
72785;SDS011;60902;53.876;10.674;2023-05-10T15:14:43;7.47;;;4.97;;
72785;SDS011;60902;53.876;10.674;2023-05-10T15:14:54;7.32;;;4.95;;
72785;SDS011;60902;53.876;10.674;2023-05-10T15:15:05;7.57;;;5.03;;
72785;SDS011;60902;53.876;10.674;2023-05-10T15:15:18;7.47;;;5.10;;
72785;SDS011;60902;53.876;10.674;2023-05-10T15:15:29;7.03;;;5.07;;
72785;SDS011;60902;53.876;10.674;2023-05-10T15:15:39;7.97;;;5.10;;
72785;SDS011;60902;53.876;10.674;2023-05-10T15:15:50;8.50;;;5.28;;
72785;SDS011;60902;53.876;10.674;2023-05-10T15:16:01;8.57;;;5.28;;
72785;SDS011;60902;53.876;10.674;2023-05-10T15:16:12;7.68;;;5.03;;
72785;SDS011;60902;53.876;10.674;2023-05-10T15:16:25;7.60;;;5.00;;
72785;SDS011;60902;53.876;10.674;2023-05-10T15:16:36;7.47;;;4.80;;
72785;SDS011;60902;53.876;10.674;2023-05-10T15:16:47;7.60;;;4.90;;
72785;SDS011;60902;53.876;10.674;2023-05-10T15:16:58;7.60;;;4.80;;
72785;SDS011;60902;53.876;10.674;2023-05-10T15:17:09;8.23;;;4.78;;
72785;SDS011;60902;53.876;10.674;2023-05-10T15:17:20;8.48;;;4.85;;
72785;SDS011;60902;53.876;10.674;2023-05-10T15:17:32;8.32;;;5.18;;
72785;SDS011;60902;53.876;10.674;2023-05-10T15:17:43;7.95;;;5.13;;
72785;SDS011;60902;53.876;10.674;2023-05-10T15:17:54;7.78;;;5.15;;
72785;SDS011;60902;53.876;10.674;2023-05-10T15:18:05;7.88;;;5.20;;
72785;SDS011;60902;53.876;10.674;2023-05-10T15:18:16;7.80;;;5.38;;
72785;SDS011;60902;53.876;10.674;2023-05-10T15:18:27;7.78;;;5.20;;
72785;SDS011;60902;53.876;10.674;2023-05-10T15:18:38;7.68;;;5.32;;
72785;SDS011;60902;53.876;10.674;2023-05-10T15:18:49;7.55;;;5.30;;
72785;SDS011;60902;53.876;10.674;2023-05-10T15:19:00;7.35;;;5.35;;